Climatempo

Climatempo Meteorologia

Obter
publicidade

Cinzas vulcânicas do Calbuco chegam a Montevideo

24/04/2015 às 14:57
por Josélia Pegorim

A pl
uma de cinzas do vulcão chileno Calbuco, que entrou em nova erupção na quarta-feira, dia 22 de abril, chegaram também sobre Montevideo, capital do Uruguai, no meio da manhã desta sexta-feira.  As cinzas (VA) foram registradas sobre o aeroporto de Carrasco, como informes do METAR. SUMU é a identificação internacional do aeroporto Carrasco. VA (volcanic ash) é a cinza vulcânica. 1700Z é o horário internacional, que corresponde a 14 horas em Brasília. Assim, o aeroporto de Carrasco está com cinzas desde 10 horas (1300Z) da manhã desta sexta-feira. SUMU 241700Z 28008KT CAVOK 25/09 Q1019 TEMPO VA SUMU 241600Z 32009KT CAVOK 24/09 Q1019 TEMPO VA SUMU 241500Z 32008KT CAVOK 23/09 Q1020 TEMPO VA SUMU 241400Z 32006KT CAVOK 21/10 Q1020 TEMPO VA SUMU 241300Z 32006KT CAVOK 19/09 Q1020 TEMPO VA Veja outros aeroportos da América do Sul  que também detectvam as cinzas do vulcão Calbuco, às 14 horas de 24 de abril de 2015
Buenos Aires (aeroparque)
SABE 241700Z 33008KT 300V010 9000 VCVA NSC 24/12 Q1019 (cinza vulcânica nas proximidades do local, num raio de 8 km)
San Fernando
SADF 241600Z 27008KT CAVOK 23/11 Q1020 RMK CENIZA VOLCANICA EN ALTURA (cinza vulcânica em altura) Bahia Blanca SAZB 241541Z 27009KT 3000 VA NSC 21/12 Q1017 Mar del Plata (província de Buenos Aires) SAZM 241700Z 32013KT 9000 VA NSC 27/11 Q1015 Neuquen SAZN 241700Z 25004KT 0600 VA BKN200 23/03 Q1018 RERMK CENIZA VOLCANICA SUSP.Y DEPOSITADA (cinza vulcânica em suspensão e depositada no solo) Bariloche SAZS 241700Z 29004KT 6000 VA NSC 19/00 Q1020 RMK VA SFC CONCENTRATION 0.000022 GRAMS/METER CUBIC (cinza vulcânica sobre o solo)
Puerto Montt (Chile)
SCTE 241700Z 36003KT 9999 VCVA NSC 17/11 Q1019 NOSIG